Time;durP1;ratioP1;P1;durP2;ratioP2;P2;SDS_P1;SDS_P2;PMS_P1;PMS_P2;Temp;Humidity;BMP_temperature;BMP_pressure;BME280_temperature;BME280_humidity;BME280_pressure;Samples;Min_cycle;Max_cycle;Signal;HPM_P1;HPM_P2
2023/12/14 00:01:46;;;;;;;15.90;8.82;;;6.30;99.90;;;;;;5020545;28;20049;-49
2023/12/14 00:04:11;;;;;;;18.92;8.65;;;6.70;99.90;;;;;;5022128;28;20049;-53
2023/12/14 00:06:37;;;;;;;15.25;9.30;;;6.40;99.90;;;;;;5020383;28;20079;-48
2023/12/14 00:09:03;;;;;;;15.32;7.97;;;6.40;99.90;;;;;;5021979;28;20038;-50
2023/12/14 00:11:29;;;;;;;14.63;8.32;;;6.60;99.90;;;;;;5020907;28;20037;-52
2023/12/14 00:13:54;;;;;;;16.77;8.55;;;6.40;99.90;;;;;;5025957;28;20030;-50
2023/12/14 00:16:20;;;;;;;16.23;8.40;;;6.30;99.90;;;;;;5026482;28;20048;-51
2023/12/14 00:18:46;;;;;;;17.27;8.82;;;6.30;99.90;;;;;;5024925;28;20046;-49
2023/12/14 00:21:11;;;;;;;15.85;7.95;;;6.60;99.90;;;;;;5023901;28;20037;-51
2023/12/14 00:23:37;;;;;;;18.88;8.75;;;6.60;99.90;;;;;;5023683;28;20095;-51
2023/12/14 00:26:03;;;;;;;16.35;8.20;;;6.20;99.90;;;;;;5024493;28;20036;-52
2023/12/14 00:28:29;;;;;;;17.10;8.70;;;6.40;99.90;;;;;;5024268;28;20374;-51
2023/12/14 00:30:54;;;;;;;16.20;8.48;;;6.20;99.90;;;;;;5024693;28;20164;-49
2023/12/14 00:33:20;;;;;;;17.88;8.50;;;6.30;99.90;;;;;;5023736;28;20500;-49
2023/12/14 00:35:46;;;;;;;18.15;8.90;;;6.70;99.90;;;;;;5024461;28;20033;-51
2023/12/14 00:38:11;;;;;;;20.02;8.85;;;6.30;99.90;;;;;;5024764;28;20041;-50
2023/12/14 00:40:37;;;;;;;14.77;8.60;;;6.50;99.90;;;;;;5026290;28;20623;-50
2023/12/14 00:43:03;;;;;;;14.70;8.43;;;6.50;99.90;;;;;;5024697;28;20508;-50
2023/12/14 00:45:29;;;;;;;17.10;8.45;;;6.70;99.90;;;;;;5023009;28;20382;-51
2023/12/14 00:47:54;;;;;;;16.77;8.52;;;6.20;99.90;;;;;;5025651;28;20026;-49
2023/12/14 00:50:20;;;;;;;15.65;8.30;;;6.20;99.90;;;;;;5025136;28;20098;-53
2023/12/14 00:52:45;;;;;;;15.88;8.48;;;6.70;99.90;;;;;;5024323;28;20164;-47
2023/12/14 00:55:11;;;;;;;16.73;8.73;;;6.70;99.90;;;;;;5025524;28;20491;-50
2023/12/14 00:57:37;;;;;;;16.83;9.05;;;6.20;99.90;;;;;;5023976;28;20029;-49
2023/12/14 01:00:03;;;;;;;16.00;8.70;;;6.70;99.90;;;;;;5023314;28;20195;-52
2023/12/14 01:02:29;;;;;;;14.27;7.90;;;6.70;99.90;;;;;;5023050;28;20062;-52
2023/12/14 01:04:55;;;;;;;14.50;7.68;;;6.60;99.90;;;;;;5023392;28;20069;-51
2023/12/14 01:07:20;;;;;;;15.18;8.38;;;6.80;99.90;;;;;;5024449;28;20029;-50
2023/12/14 01:09:46;;;;;;;16.02;8.13;;;6.60;99.90;;;;;;5025786;28;20041;-49
2023/12/14 01:12:12;;;;;;;15.35;7.72;;;6.20;99.90;;;;;;5023538;28;20040;-49
2023/12/14 01:14:37;;;;;;;15.82;7.95;;;6.30;99.90;;;;;;5025066;28;20091;-50
2023/12/14 01:17:03;;;;;;;12.50;7.20;;;6.60;99.90;;;;;;5025679;28;20839;-50
2023/12/14 01:19:29;;;;;;;18.65;8.50;;;6.50;99.90;;;;;;5023930;28;20493;-50
2023/12/14 01:21:55;;;;;;;13.27;6.93;;;6.50;99.90;;;;;;5038071;28;20445;-50
2023/12/14 01:24:21;;;;;;;14.65;7.60;;;6.80;99.90;;;;;;5020751;28;20175;-49
2023/12/14 01:26:46;;;;;;;12.48;7.28;;;6.30;99.90;;;;;;5026257;28;20112;-51
2023/12/14 01:29:12;;;;;;;15.70;7.72;;;6.40;99.90;;;;;;5023944;28;20033;-51
2023/12/14 01:31:37;;;;;;;15.40;7.72;;;6.10;99.90;;;;;;5023362;28;20079;-50
2023/12/14 01:34:03;;;;;;;15.00;7.60;;;6.50;99.90;;;;;;5022512;28;20049;-51
2023/12/14 01:36:29;;;;;;;16.58;8.02;;;6.60;99.90;;;;;;5024315;28;20478;-49
2023/12/14 01:38:55;;;;;;;15.00;7.80;;;6.60;99.90;;;;;;5023446;28;20115;-53
2023/12/14 01:41:20;;;;;;;15.07;7.80;;;6.60;99.90;;;;;;5024031;28;20085;-51
2023/12/14 01:43:46;;;;;;;18.27;8.43;;;6.10;99.90;;;;;;5023801;28;20396;-52
2023/12/14 01:46:13;;;;;;;15.73;8.23;;;6.70;99.90;;;;;;5024844;28;20041;-50
2023/12/14 01:48:38;;;;;;;16.83;8.48;;;6.60;99.90;;;;;;5022651;28;20057;-49
2023/12/14 01:51:04;;;;;;;19.85;8.88;;;6.30;99.90;;;;;;5021999;28;20045;-48
2023/12/14 01:53:30;;;;;;;17.58;8.13;;;6.00;99.90;;;;;;5022243;28;20037;-52
2023/12/14 01:55:56;;;;;;;17.38;8.32;;;6.70;99.90;;;;;;5024280;28;20041;-53
2023/12/14 01:58:22;;;;;;;17.67;8.73;;;6.00;99.90;;;;;;5023162;28;20048;-52
2023/12/14 02:01:25;;;;;;;16.33;9.15;;;6.70;99.90;;;;;;5022271;28;20128;-49
2023/12/14 02:03:52;;;;;;;17.88;8.82;;;6.10;99.90;;;;;;5021947;28;20038;-50
2023/12/14 02:06:18;;;;;;;15.40;8.63;;;6.00;99.90;;;;;;5023359;28;20034;-51
2023/12/14 02:08:43;;;;;;;15.73;8.82;;;6.00;99.90;;;;;;5024013;28;20042;-51
2023/12/14 02:11:10;;;;;;;19.35;8.15;;;6.40;99.90;;;;;;5023321;28;20120;-48
2023/12/14 02:13:36;;;;;;;17.33;8.15;;;5.90;99.90;;;;;;5021660;28;20042;-50
2023/12/14 02:16:01;;;;;;;16.60;8.02;;;6.40;99.90;;;;;;5023357;28;20047;-50
2023/12/14 02:18:27;;;;;;;14.25;8.02;;;6.50;99.90;;;;;;5022676;28;20033;-51
2023/12/14 02:20:53;;;;;;;17.52;8.15;;;6.90;99.90;;;;;;5021610;28;20080;-50
2023/12/14 02:23:18;;;;;;;17.85;8.30;;;6.40;99.90;;;;;;5022526;28;20401;-52
2023/12/14 02:25:44;;;;;;;15.02;7.95;;;6.50;99.90;;;;;;5024159;28;20029;-51
2023/12/14 02:28:10;;;;;;;15.65;8.05;;;6.10;99.90;;;;;;5023412;28;20034;-51
2023/12/14 02:30:35;;;;;;;17.60;8.80;;;5.90;99.90;;;;;;5024296;28;20037;-51
2023/12/14 02:33:01;;;;;;;18.25;8.80;;;6.50;99.90;;;;;;5024223;28;20084;-52
2023/12/14 02:35:27;;;;;;;21.90;9.30;;;6.20;99.90;;;;;;5021229;28;20048;-48
2023/12/14 02:37:52;;;;;;;21.73;8.57;;;6.00;99.90;;;;;;5022333;28;20057;-51
2023/12/14 02:40:18;;;;;;;16.45;8.57;;;5.80;99.90;;;;;;5021859;28;20044;-52
2023/12/14 02:42:44;;;;;;;18.77;9.32;;;5.90;99.90;;;;;;5022191;28;20037;-52
2023/12/14 02:45:09;;;;;;;18.27;9.02;;;6.70;99.90;;;;;;5022118;28;20033;-48
2023/12/14 02:47:35;;;;;;;19.23;8.30;;;6.50;99.90;;;;;;5022656;28;20057;-48
2023/12/14 02:50:01;;;;;;;18.05;8.55;;;6.00;99.90;;;;;;5021762;28;20025;-48
2023/12/14 02:52:26;;;;;;;20.25;8.82;;;6.70;99.90;;;;;;5020505;28;20029;-51
2023/12/14 02:54:52;;;;;;;18.27;8.10;;;6.40;99.90;;;;;;5022753;28;20041;-50
2023/12/14 02:57:18;;;;;;;19.08;7.88;;;6.60;99.90;;;;;;5022038;28;20030;-52
2023/12/14 02:59:44;;;;;;;20.00;8.10;;;6.40;99.90;;;;;;5023647;28;20562;-51
2023/12/14 03:02:10;;;;;;;18.00;8.30;;;6.30;99.90;;;;;;5022613;28;20038;-48
2023/12/14 03:04:39;;;;;;;16.40;8.02;;;6.30;99.90;;;;;;5021473;28;20068;-48
2023/12/14 03:07:05;;;;;;;12.80;7.35;;;6.30;99.90;;;;;;5022964;28;20040;-49
2023/12/14 03:09:31;;;;;;;13.98;6.97;;;6.20;99.90;;;;;;5022679;28;20037;-51
2023/12/14 03:11:57;;;;;;;17.15;7.55;;;5.90;99.90;;;;;;5022754;28;20493;-46
2023/12/14 03:14:23;;;;;;;14.95;6.97;;;6.10;99.90;;;;;;5021416;28;20034;-51
2023/12/14 03:16:49;;;;;;;13.07;7.03;;;5.70;99.90;;;;;;5021404;28;20473;-52
2023/12/14 03:19:17;;;;;;;15.07;7.75;;;6.00;99.90;;;;;;5022191;28;20031;-49
2023/12/14 03:21:43;;;;;;;13.32;6.50;;;6.00;99.90;;;;;;5021512;28;20611;-50
2023/12/14 03:24:11;;;;;;;13.23;6.82;;;6.30;99.90;;;;;;5021959;28;20158;-51
2023/12/14 03:26:37;;;;;;;11.52;6.65;;;5.90;99.90;;;;;;5020564;28;20135;-51
2023/12/14 03:29:03;;;;;;;12.60;5.95;;;6.30;99.90;;;;;;5021999;28;20112;-50
2023/12/14 03:31:29;;;;;;;13.90;6.97;;;6.10;99.90;;;;;;5022840;28;20076;-51
2023/12/14 03:33:54;;;;;;;12.85;6.88;;;6.20;99.90;;;;;;5022178;28;20099;-50
2023/12/14 03:36:22;;;;;;;12.50;6.72;;;6.10;99.90;;;;;;5021057;28;20044;-50
2023/12/14 03:38:48;;;;;;;11.07;6.03;;;5.70;99.90;;;;;;5019604;28;20041;-51
2023/12/14 03:41:13;;;;;;;18.00;6.47;;;5.80;99.90;;;;;;5021742;28;20056;-50
2023/12/14 03:43:39;;;;;;;11.88;6.22;;;5.80;99.90;;;;;;5021449;28;20497;-47
2023/12/14 03:46:06;;;;;;;13.68;6.28;;;6.00;99.90;;;;;;5020995;28;20128;-47
2023/12/14 03:48:32;;;;;;;13.52;5.80;;;5.80;99.90;;;;;;5019909;28;20126;-47
2023/12/14 03:50:57;;;;;;;12.80;5.82;;;5.90;99.90;;;;;;5017156;28;20048;-49
2023/12/14 03:53:23;;;;;;;11.60;6.40;;;5.70;99.90;;;;;;5021747;28;20037;-50
2023/12/14 03:55:49;;;;;;;9.73;5.35;;;6.00;99.90;;;;;;5021205;28;20111;-52
2023/12/14 03:58:14;;;;;;;12.02;6.43;;;5.70;99.90;;;;;;5020984;28;20412;-51
2023/12/14 04:00:40;;;;;;;11.38;5.88;;;5.90;99.90;;;;;;5021364;28;20464;-50
2023/12/14 04:03:05;;;;;;;11.48;5.88;;;6.10;99.90;;;;;;5020746;28;20394;-49
2023/12/14 04:05:31;;;;;;;9.75;5.50;;;5.80;99.90;;;;;;5020583;28;20362;-50
2023/12/14 04:07:57;;;;;;;11.02;5.50;;;5.80;99.90;;;;;;5022700;28;20469;-50
2023/12/14 04:10:22;;;;;;;11.45;6.00;;;5.80;99.90;;;;;;5021447;28;20489;-47
2023/12/14 04:12:48;;;;;;;13.70;6.28;;;6.10;99.90;;;;;;5022390;28;20045;-46
2023/12/14 04:15:14;;;;;;;12.63;6.35;;;6.10;99.90;;;;;;5035925;28;20033;-47
2023/12/14 04:17:39;;;;;;;12.00;6.53;;;6.10;99.90;;;;;;5022164;28;20041;-51
2023/12/14 04:20:06;;;;;;;12.40;6.03;;;6.20;99.90;;;;;;5021747;28;20088;-50
2023/12/14 04:22:32;;;;;;;13.02;5.88;;;5.70;99.90;;;;;;5019637;28;20052;-51
2023/12/14 04:24:57;;;;;;;12.43;6.28;;;6.10;99.90;;;;;;5020024;28;20426;-52
2023/12/14 04:27:27;;;;;;;15.13;6.75;;;6.20;99.90;;;;;;5021115;28;20521;-49
2023/12/14 04:29:52;;;;;;;14.27;6.63;;;6.00;99.90;;;;;;5022855;28;20033;-48
2023/12/14 04:32:18;;;;;;;12.02;6.70;;;6.00;99.90;;;;;;5019772;28;20087;-49
2023/12/14 04:34:44;;;;;;;12.18;6.63;;;6.10;99.90;;;;;;5021645;28;20025;-49
2023/12/14 04:37:09;;;;;;;12.38;6.63;;;5.90;99.90;;;;;;5020976;28;20040;-50
2023/12/14 04:39:35;;;;;;;14.70;6.57;;;6.20;99.90;;;;;;5019605;28;20474;-49
2023/12/14 04:42:01;;;;;;;13.77;6.07;;;5.70;99.90;;;;;;5020893;28;20145;-50
2023/12/14 04:44:27;;;;;;;15.18;6.80;;;5.90;99.90;;;;;;5021469;28;20496;-49
2023/12/14 04:46:52;;;;;;;16.73;7.85;;;6.00;99.90;;;;;;5021504;28;20056;-51
2023/12/14 04:49:19;;;;;;;21.73;8.10;;;5.60;99.90;;;;;;5018184;28;20046;-51
2023/12/14 04:51:45;;;;;;;16.55;7.28;;;5.80;99.90;;;;;;5021084;28;20038;-50
2023/12/14 04:54:11;;;;;;;16.73;7.30;;;5.70;99.90;;;;;;5021271;28;20408;-52
2023/12/14 04:56:36;;;;;;;17.33;7.30;;;5.60;99.90;;;;;;5020577;28;20065;-49
2023/12/14 04:59:02;;;;;;;15.32;6.90;;;5.50;99.90;;;;;;5002341;28;20045;-49
2023/12/14 05:01:28;;;;;;;21.13;8.30;;;5.90;99.90;;;;;;5022214;28;20069;-48
2023/12/14 05:03:53;;;;;;;17.35;12.90;;;6.10;99.90;;;;;;5023340;28;20088;-51
2023/12/14 05:06:19;;;;;;;15.27;7.60;;;5.70;99.90;;;;;;5022998;28;20040;-48
2023/12/14 05:08:45;;;;;;;17.95;7.57;;;6.00;99.90;;;;;;5023808;28;20044;-50
2023/12/14 05:11:13;;;;;;;17.58;8.57;;;5.70;99.90;;;;;;5024478;28;20037;-48
2023/12/14 05:13:38;;;;;;;16.42;8.15;;;5.90;99.90;;;;;;5025591;28;20766;-49
2023/12/14 05:16:04;;;;;;;16.75;8.20;;;5.90;99.90;;;;;;5023744;28;20045;-49
2023/12/14 05:18:30;;;;;;;18.38;7.90;;;5.60;99.90;;;;;;5024904;28;20393;-51
2023/12/14 05:20:56;;;;;;;18.75;7.53;;;5.50;99.90;;;;;;5023866;28;20048;-50
2023/12/14 05:23:21;;;;;;;17.58;7.80;;;6.20;99.90;;;;;;5025189;28;20188;-48
2023/12/14 05:25:47;;;;;;;18.67;8.13;;;6.20;99.90;;;;;;5023137;28;20121;-49
2023/12/14 05:28:13;;;;;;;15.05;7.40;;;5.70;99.90;;;;;;5023826;28;20018;-52
2023/12/14 05:30:39;;;;;;;19.83;7.97;;;6.00;99.90;;;;;;5023652;28;20029;-50
2023/12/14 05:33:04;;;;;;;14.27;6.90;;;5.70;99.90;;;;;;5021780;28;20045;-50
2023/12/14 05:35:30;;;;;;;17.10;7.72;;;6.00;99.90;;;;;;5024358;28;20097;-49
2023/12/14 05:37:56;;;;;;;15.38;7.47;;;6.10;99.90;;;;;;5024225;28;20123;-49
2023/12/14 05:40:22;;;;;;;19.67;7.47;;;5.70;99.90;;;;;;5023597;28;20396;-52
2023/12/14 05:42:48;;;;;;;16.05;7.57;;;5.70;99.90;;;;;;5021543;28;20041;-49
2023/12/14 05:45:13;;;;;;;17.95;7.85;;;5.60;99.90;;;;;;5021604;28;20392;-50
2023/12/14 05:47:41;;;;;;;14.00;7.15;;;6.00;99.90;;;;;;5023588;28;20065;-49
2023/12/14 05:50:09;;;;;;;17.67;7.68;;;5.80;99.90;;;;;;5023642;28;20044;-51
2023/12/14 05:52:35;;;;;;;15.27;7.30;;;6.10;99.90;;;;;;5022958;28;20366;-50
2023/12/14 05:55:01;;;;;;;14.02;7.00;;;5.70;99.90;;;;;;5022835;28;20123;-48
2023/12/14 05:57:27;;;;;;;16.05;7.85;;;6.00;99.90;;;;;;5024859;28;20478;-49
2023/12/14 05:59:53;;;;;;;16.08;6.97;;;5.60;99.90;;;;;;5039459;28;20056;-49
2023/12/14 06:02:19;;;;;;;13.10;7.22;;;5.80;99.90;;;;;;5022541;28;20072;-49
2023/12/14 06:04:44;;;;;;;14.93;6.13;;;5.60;99.90;;;;;;5020999;28;20057;-48
2023/12/14 06:07:10;;;;;;;14.52;6.60;;;5.60;99.90;;;;;;5021332;28;20116;-48
2023/12/14 06:09:36;;;;;;;14.02;6.28;;;5.70;99.90;;;;;;5024137;28;20037;-51
2023/12/14 06:12:02;;;;;;;15.63;6.88;;;5.90;99.90;;;;;;5021468;28;20075;-50
2023/12/14 06:14:28;;;;;;;13.57;6.93;;;6.00;99.90;;;;;;5023265;28;20037;-48
2023/12/14 06:16:54;;;;;;;14.70;6.47;;;6.10;99.90;;;;;;5023187;28;20068;-49
2023/12/14 06:19:20;;;;;;;17.77;7.90;;;5.90;99.90;;;;;;5023847;28;20465;-52
2023/12/14 06:21:46;;;;;;;13.70;6.97;;;5.90;99.90;;;;;;5022899;28;20205;-51
2023/12/14 06:24:11;;;;;;;17.08;6.75;;;5.70;99.90;;;;;;5020051;28;20152;-52
2023/12/14 06:26:41;;;;;;;16.92;7.15;;;6.00;99.90;;;;;;5022586;28;20021;-47
2023/12/14 06:29:07;;;;;;;17.63;6.93;;;6.20;99.90;;;;;;5023527;28;20038;-48
2023/12/14 06:31:33;;;;;;;17.52;7.10;;;5.60;99.90;;;;;;5020073;28;20603;-52
2023/12/14 06:34:00;;;;;;;18.75;7.55;;;5.70;99.90;;;;;;5023133;28;20397;-50
2023/12/14 06:36:29;;;;;;;15.85;6.80;;;6.00;99.90;;;;;;5023743;28;20041;-50
2023/12/14 06:38:55;;;;;;;18.65;7.82;;;5.80;99.90;;;;;;5022750;28;20025;-52
2023/12/14 06:41:22;;;;;;;15.90;7.45;;;5.60;99.90;;;;;;5021313;28;20066;-49
2023/12/14 06:43:48;;;;;;;15.07;8.00;;;5.50;99.90;;;;;;5019847;28;20072;-49
2023/12/14 06:46:15;;;;;;;13.77;6.93;;;6.10;99.90;;;;;;5021122;28;20034;-50
2023/12/14 06:48:41;;;;;;;17.08;7.80;;;5.80;99.90;;;;;;5022013;28;20025;-50
2023/12/14 06:51:07;;;;;;;16.05;6.50;;;6.00;99.90;;;;;;5020967;28;20464;-51
2023/12/14 06:53:33;;;;;;;15.65;7.03;;;5.90;99.90;;;;;;5022405;28;20037;-51
2023/12/14 06:55:59;;;;;;;14.93;7.70;;;5.90;99.90;;;;;;5020957;28;20132;-50
2023/12/14 06:58:25;;;;;;;18.15;6.97;;;5.80;99.90;;;;;;5023792;28;20199;-48
2023/12/14 07:00:50;;;;;;;18.10;7.38;;;5.90;99.90;;;;;;5020542;28;20038;-49
2023/12/14 07:03:16;;;;;;;20.33;7.75;;;6.10;99.90;;;;;;5020813;28;20025;-48
2023/12/14 07:05:42;;;;;;;20.20;7.13;;;5.90;99.90;;;;;;5022337;28;20036;-52
2023/12/14 07:08:07;;;;;;;15.27;7.03;;;6.20;99.90;;;;;;5019769;28;20034;-50
2023/12/14 07:10:34;;;;;;;16.45;7.90;;;5.80;99.90;;;;;;5021460;28;20172;-53
2023/12/14 07:12:59;;;;;;;18.98;8.00;;;6.50;99.90;;;;;;5021369;28;20049;-52
2023/12/14 07:15:25;;;;;;;16.67;7.70;;;5.90;99.90;;;;;;5021790;28;20041;-52
2023/12/14 07:17:51;;;;;;;17.55;7.75;;;6.10;99.90;;;;;;5021983;28;20033;-50
2023/12/14 07:20:16;;;;;;;19.15;7.47;;;5.90;99.90;;;;;;5022307;28;20034;-50
2023/12/14 07:22:42;;;;;;;18.23;7.35;;;6.50;99.90;;;;;;5020812;28;20123;-49
2023/12/14 07:25:08;;;;;;;14.00;7.03;;;6.50;99.90;;;;;;5022182;28;20048;-50
2023/12/14 07:27:34;;;;;;;17.83;7.47;;;6.00;99.90;;;;;;5022837;28;20033;-53
2023/12/14 07:30:00;;;;;;;14.57;7.55;;;5.90;99.90;;;;;;5010392;28;20505;-49
2023/12/14 07:32:26;;;;;;;16.45;7.32;;;5.90;99.90;;;;;;5021208;28;20389;-51
2023/12/14 07:34:52;;;;;;;20.27;7.18;;;6.00;99.90;;;;;;5021869;28;20064;-46
2023/12/14 07:37:18;;;;;;;16.58;6.78;;;6.00;99.90;;;;;;5019790;28;20030;-50
2023/12/14 07:39:44;;;;;;;13.93;6.93;;;5.80;99.90;;;;;;5021930;28;20501;-49
2023/12/14 07:42:10;;;;;;;17.58;7.03;;;6.00;99.90;;;;;;5022645;28;20056;-51
2023/12/14 07:44:37;;;;;;;19.75;7.72;;;5.70;99.90;;;;;;5017582;28;20057;-50
2023/12/14 07:47:03;;;;;;;17.35;7.05;;;6.00;99.90;;;;;;5020323;28;20041;-50
2023/12/14 07:49:29;;;;;;;18.30;7.43;;;6.00;99.90;;;;;;5019939;28;20461;-46
2023/12/14 07:51:54;;;;;;;17.17;7.53;;;5.60;99.90;;;;;;5021441;28;20065;-51
2023/12/14 07:54:20;;;;;;;13.38;6.47;;;5.90;99.90;;;;;;5019235;28;20065;-50
2023/12/14 07:56:46;;;;;;;15.38;6.93;;;5.90;99.90;;;;;;5020964;28;20112;-48
2023/12/14 07:59:13;;;;;;;18.52;7.32;;;5.90;99.90;;;;;;5022200;28;20041;-51
2023/12/14 08:01:38;;;;;;;13.77;7.00;;;5.70;99.90;;;;;;5022050;28;20287;-52
2023/12/14 08:04:04;;;;;;;17.55;7.35;;;5.90;99.90;;;;;;5022817;28;20080;-52
2023/12/14 08:06:30;;;;;;;16.25;6.95;;;5.90;99.90;;;;;;5018963;28;20519;-51
2023/12/14 08:08:57;;;;;;;17.00;7.03;;;5.90;99.90;;;;;;5021035;28;20041;-50
2023/12/14 08:11:24;;;;;;;18.95;7.63;;;5.80;99.90;;;;;;5021095;28;20038;-50
2023/12/14 08:13:50;;;;;;;15.13;7.28;;;5.60;99.90;;;;;;5021353;28;20048;-50
2023/12/14 08:16:17;;;;;;;20.60;7.95;;;6.10;99.90;;;;;;5020599;28;20152;-48
2023/12/14 08:18:45;;;;;;;18.92;7.85;;;5.90;99.90;;;;;;5020378;28;20143;-50
2023/12/14 08:21:11;;;;;;;18.50;7.85;;;5.50;99.90;;;;;;5021987;28;20393;-50
2023/12/14 08:23:37;;;;;;;20.88;8.18;;;5.70;99.90;;;;;;5021079;28;20488;-51
2023/12/14 08:26:03;;;;;;;18.42;8.00;;;5.60;99.90;;;;;;5021322;28;20061;-51
2023/12/14 08:28:29;;;;;;;17.05;7.22;;;5.70;99.90;;;;;;5021858;28;20060;-50
2023/12/14 08:30:57;;;;;;;20.35;8.55;;;5.60;99.90;;;;;;5019357;28;20279;-51
2023/12/14 08:33:23;;;;;;;22.58;8.07;;;6.20;99.90;;;;;;5020139;28;20117;-51
2023/12/14 08:35:50;;;;;;;18.95;8.65;;;6.20;99.90;;;;;;5026383;28;20115;-50
2023/12/14 08:38:16;;;;;;;20.30;9.15;;;6.20;99.90;;;;;;5023329;28;20037;-50
2023/12/14 08:40:42;;;;;;;21.90;8.65;;;6.30;99.90;;;;;;5024455;28;20077;-47
2023/12/14 08:43:07;;;;;;;19.52;8.98;;;6.20;99.90;;;;;;5026888;28;20069;-49
2023/12/14 08:45:33;;;;;;;31.08;9.55;;;6.30;99.90;;;;;;5024275;28;20034;-48
2023/12/14 08:47:59;;;;;;;24.52;9.50;;;6.30;99.90;;;;;;5025650;28;20033;-48
2023/12/14 08:50:26;;;;;;;25.25;9.40;;;6.00;99.90;;;;;;5025449;28;20493;-49
2023/12/14 08:52:52;;;;;;;21.23;9.27;;;5.70;99.90;;;;;;5023776;28;20083;-49
2023/12/14 08:55:18;;;;;;;23.58;9.52;;;6.40;99.90;;;;;;5024941;28;20382;-51
2023/12/14 08:57:44;;;;;;;24.55;9.10;;;6.20;99.90;;;;;;5026010;28;20472;-51
2023/12/14 09:00:10;;;;;;;26.67;9.68;;;5.70;99.90;;;;;;5020695;28;20112;-49
2023/12/14 09:02:36;;;;;;;22.38;9.95;;;5.70;99.90;;;;;;5024056;28;20099;-49
2023/12/14 09:05:04;;;;;;;21.70;9.55;;;6.20;99.90;;;;;;5026069;28;20120;-49
2023/12/14 09:07:30;;;;;;;24.27;8.65;;;5.90;99.90;;;;;;5025175;28;20469;-49
2023/12/14 09:09:56;;;;;;;24.05;9.02;;;6.40;99.90;;;;;;5024399;28;20049;-50
2023/12/14 09:12:21;;;;;;;27.10;9.70;;;6.70;99.90;;;;;;5006720;28;20041;-49
2023/12/14 09:14:47;;;;;;;24.10;8.77;;;6.30;99.90;;;;;;5024641;28;20041;-51
2023/12/14 09:17:13;;;;;;;28.30;9.63;;;5.80;99.90;;;;;;5022725;28;20397;-50
2023/12/14 09:19:38;;;;;;;25.98;9.20;;;6.00;99.90;;;;;;5023827;28;20049;-50
2023/12/14 09:22:04;;;;;;;23.02;8.85;;;5.90;99.90;;;;;;5024575;28;20045;-51
2023/12/14 09:24:30;;;;;;;24.83;10.10;;;5.90;99.90;;;;;;5023520;28;20053;-51
2023/12/14 09:26:56;;;;;;;26.48;9.98;;;6.00;99.90;;;;;;5023579;28;20033;-50
2023/12/14 09:29:21;;;;;;;19.73;9.38;;;5.90;99.90;;;;;;5023483;28;20496;-50
2023/12/14 09:31:47;;;;;;;20.85;9.02;;;6.40;99.90;;;;;;5022298;28;20063;-50
2023/12/14 09:34:14;;;;;;;20.80;8.80;;;6.40;99.90;;;;;;5021840;28;20444;-50
2023/12/14 09:36:40;;;;;;;20.15;9.55;;;6.30;99.90;;;;;;5022623;28;20382;-50
2023/12/14 09:39:10;;;;;;;26.83;10.02;;;6.60;99.90;;;;;;5023382;28;20040;-49
2023/12/14 09:41:37;;;;;;;24.67;9.65;;;6.50;99.90;;;;;;5023007;28;20140;-51
2023/12/14 09:44:05;;;;;;;26.25;10.40;;;6.40;99.90;;;;;;5023831;28;20448;-48
2023/12/14 09:46:34;;;;;;;22.65;8.90;;;6.40;99.90;;;;;;5028199;28;20474;-50
2023/12/14 09:49:01;;;;;;;23.70;10.00;;;6.50;99.90;;;;;;5032010;28;20041;-51
2023/12/14 09:51:27;;;;;;;26.80;9.90;;;6.60;99.90;;;;;;5032538;28;20045;-49
2023/12/14 09:53:57;;;;;;;25.35;9.90;;;5.80;99.90;;;;;;5032166;28;20044;-52
2023/12/14 09:56:27;;;;;;;24.10;9.65;;;5.90;99.90;;;;;;5031130;28;20076;-52
2023/12/14 09:58:53;;;;;;;23.17;10.35;;;6.40;99.90;;;;;;5032269;28;20109;-50
2023/12/14 10:01:27;;;;;;;20.50;9.27;;;6.50;99.90;;;;;;5032807;28;20592;-52
2023/12/14 10:04:09;;;;;;;25.60;9.88;;;6.50;99.90;;;;;;5031132;28;20045;-51
2023/12/14 10:06:34;;;;;;;23.15;9.88;;;6.50;99.90;;;;;;5030769;28;20073;-51
2023/12/14 10:09:01;;;;;;;23.80;10.02;;;5.90;99.90;;;;;;5032711;28;20521;-50
2023/12/14 10:11:26;;;;;;;23.23;9.32;;;6.50;99.90;;;;;;5032478;28;20048;-48
2023/12/14 10:13:52;;;;;;;19.65;9.43;;;6.50;99.90;;;;;;5032200;28;20033;-48
2023/12/14 10:16:33;;;;;;;18.60;8.88;;;6.60;99.90;;;;;;5032524;28;20120;-50
2023/12/14 10:19:00;;;;;;;22.00;9.00;;;6.30;99.90;;;;;;5032117;28;20389;-49
2023/12/14 10:21:29;;;;;;;19.40;8.75;;;6.60;99.90;;;;;;5032699;28;20073;-52
2023/12/14 10:23:58;;;;;;;23.02;10.15;;;6.20;99.90;;;;;;5031810;28;20041;-49
2023/12/14 10:26:25;;;;;;;26.58;10.18;;;6.50;99.90;;;;;;5032446;28;20073;-51
2023/12/14 10:28:54;;;;;;;23.77;10.23;;;6.60;99.90;;;;;;5032451;28;20033;-50
2023/12/14 10:31:21;;;;;;;24.27;10.32;;;6.30;99.90;;;;;;5032487;28;20461;-48
2023/12/14 10:33:47;;;;;;;18.67;8.90;;;6.10;99.90;;;;;;5032103;28;20041;-52
2023/12/14 10:36:14;;;;;;;25.48;8.70;;;6.20;99.90;;;;;;5032501;28;20389;-49
2023/12/14 10:38:43;;;;;;;25.02;9.82;;;6.10;99.90;;;;;;5032037;28;20049;-51
2023/12/14 10:41:11;;;;;;;21.33;8.88;;;6.30;99.90;;;;;;5031296;28;20054;-48
2023/12/14 10:43:37;;;;;;;21.23;10.05;;;6.20;99.90;;;;;;5031933;28;20136;-47
2023/12/14 10:46:09;;;;;;;18.88;9.10;;;6.50;99.90;;;;;;5030798;28;20503;-51
2023/12/14 10:48:37;;;;;;;20.45;9.35;;;6.80;99.90;;;;;;5031798;28;20124;-52
2023/12/14 10:51:05;;;;;;;22.55;9.00;;;6.70;99.90;;;;;;5028917;28;20112;-51
2023/12/14 10:53:31;;;;;;;22.83;9.80;;;6.80;99.90;;;;;;5023651;28;20052;-49
2023/12/14 10:56:00;;;;;;;20.33;9.20;;;6.50;99.90;;;;;;5025334;28;20033;-51
2023/12/14 10:58:26;;;;;;;24.10;9.98;;;6.90;99.90;;;;;;5025072;28;20129;-50
2023/12/14 11:01:02;;;;;;;20.65;9.57;;;7.10;99.90;;;;;;5026093;28;20153;-47
2023/12/14 11:03:33;;;;;;;22.02;9.85;;;6.70;99.90;;;;;;5027647;28;20046;-51
2023/12/14 11:06:00;;;;;;;19.15;9.60;;;7.30;99.90;;;;;;5029908;28;20087;-50
2023/12/14 11:08:26;;;;;;;19.75;9.57;;;7.20;99.90;;;;;;5029789;28;20103;-49
2023/12/14 11:11:10;;;;;;;18.98;9.13;;;7.10;99.90;;;;;;5029728;28;20041;-50
2023/12/14 11:13:38;;;;;;;18.83;8.75;;;7.00;99.90;;;;;;5029889;28;20029;-51
2023/12/14 11:16:04;;;;;;;21.95;9.80;;;7.10;99.90;;;;;;5026981;28;20068;-49
2023/12/14 11:18:30;;;;;;;19.33;9.43;;;6.90;99.90;;;;;;5027743;28;20068;-50
2023/12/14 11:20:59;;;;;;;18.55;8.85;;;6.90;99.90;;;;;;5029225;28;20041;-50
2023/12/14 11:23:24;;;;;;;25.45;9.15;;;7.20;99.90;;;;;;5030620;28;20396;-47
2023/12/14 11:25:54;;;;;;;17.55;8.57;;;7.10;99.90;;;;;;5028979;28;20033;-50
2023/12/14 11:28:20;;;;;;;26.15;11.60;;;7.20;99.90;;;;;;5028385;28;20045;-50
2023/12/14 11:30:46;;;;;;;22.55;10.32;;;7.60;99.90;;;;;;5030436;28;20034;-50
2023/12/14 11:33:13;;;;;;;18.63;8.15;;;7.40;99.90;;;;;;5030520;28;20428;-51
2023/12/14 11:35:39;;;;;;;20.17;9.48;;;7.50;99.90;;;;;;5028915;28;20042;-52
2023/12/14 11:38:12;;;;;;;15.50;8.15;;;7.40;99.90;;;;;;5030799;28;20107;-51
2023/12/14 11:40:38;;;;;;;20.40;9.90;;;7.40;99.90;;;;;;5026950;28;20132;-51
2023/12/14 11:43:08;;;;;;;19.58;9.43;;;7.40;99.90;;;;;;5030666;28;20069;-51
2023/12/14 11:45:38;;;;;;;17.08;8.10;;;7.70;99.90;;;;;;5029693;28;20076;-52
2023/12/14 11:48:05;;;;;;;13.88;7.05;;;7.60;99.90;;;;;;5029328;28;20079;-49
2023/12/14 11:50:34;;;;;;;16.65;7.10;;;7.50;99.90;;;;;;5029130;28;20041;-50
2023/12/14 11:53:04;;;;;;;18.38;8.05;;;7.30;99.90;;;;;;5029810;28;20076;-53
2023/12/14 11:55:30;;;;;;;16.40;8.25;;;7.40;99.90;;;;;;5029200;28;20037;-51
2023/12/14 11:57:57;;;;;;;18.63;8.35;;;7.30;99.90;;;;;;5028211;28;20049;-52
2023/12/14 12:00:28;;;;;;;17.92;8.27;;;7.40;99.90;;;;;;5027152;28;20045;-51
2023/12/14 12:03:09;;;;;;;15.80;8.43;;;7.40;99.90;;;;;;5030011;28;20037;-49
2023/12/14 12:05:45;;;;;;;15.93;8.05;;;7.50;99.90;;;;;;5029271;28;20042;-50
2023/12/14 12:08:12;;;;;;;14.02;7.00;;;8.10;99.90;;;;;;5029914;28;20045;-49
2023/12/14 12:10:39;;;;;;;18.35;7.53;;;7.70;99.90;;;;;;5034077;28;20366;-47
2023/12/14 12:13:07;;;;;;;16.55;7.28;;;7.80;99.90;;;;;;5034605;28;20415;-49
2023/12/14 12:15:35;;;;;;;15.27;8.40;;;7.80;99.90;;;;;;5033139;28;20520;-51
2023/12/14 12:18:17;;;;;;;19.05;9.25;;;7.80;99.90;;;;;;5032622;28;20049;-48
2023/12/14 12:20:43;;;;;;;20.63;9.57;;;8.20;99.90;;;;;;5032883;28;20052;-49
2023/12/14 12:23:09;;;;;;;19.15;8.77;;;7.80;99.90;;;;;;5031711;28;20033;-47
2023/12/14 12:25:35;;;;;;;20.23;8.98;;;7.70;99.90;;;;;;5032923;28;20084;-50
2023/12/14 12:28:03;;;;;;;18.50;8.43;;;7.80;99.90;;;;;;5031910;28;20105;-49
2023/12/14 12:30:29;;;;;;;17.45;8.63;;;7.80;99.90;;;;;;5033758;28;20045;-50
2023/12/14 12:32:55;;;;;;;18.58;8.50;;;7.60;99.90;;;;;;5032438;28;20481;-48
2023/12/14 12:35:22;;;;;;;15.23;8.63;;;7.60;99.90;;;;;;5034012;28;20037;-50
2023/12/14 12:37:53;;;;;;;16.95;7.85;;;7.60;99.90;;;;;;5033699;28;20524;-50
2023/12/14 12:40:20;;;;;;;19.13;7.80;;;7.60;99.90;;;;;;5033364;28;20151;-50
2023/12/14 12:42:48;;;;;;;16.55;7.72;;;7.60;99.90;;;;;;5032083;28;20048;-52